sensor_id;sensor_type;location;lat;lon;timestamp;pressure;altitude;pressure_sealevel;temperature;humidity
45763;BME280;37512;52.408;13.356;2024-01-07T00:01:53;101231.81;;;1.12;60.80
45763;BME280;37512;52.408;13.356;2024-01-07T00:05:56;101221.91;;;1.28;60.02
45763;BME280;37512;52.408;13.356;2024-01-07T00:09:57;101228.75;;;1.31;60.62
45763;BME280;37512;52.408;13.356;2024-01-07T00:13:59;101232.34;;;1.42;61.34
45763;BME280;37512;52.408;13.356;2024-01-07T00:18:00;101236.84;;;1.02;62.21
45763;BME280;37512;52.408;13.356;2024-01-07T00:22:03;101237.09;;;1.12;61.78
45763;BME280;37512;52.408;13.356;2024-01-07T00:26:05;101243.22;;;1.25;62.02
45763;BME280;37512;52.408;13.356;2024-01-07T00:30:07;101251.25;;;1.36;60.82
45763;BME280;37512;52.408;13.356;2024-01-07T00:34:08;101247.78;;;1.23;62.00
45763;BME280;37512;52.408;13.356;2024-01-07T00:38:10;101248.47;;;1.00;62.33
45763;BME280;37512;52.408;13.356;2024-01-07T00:42:12;101264.03;;;1.04;62.26
45763;BME280;37512;52.408;13.356;2024-01-07T00:46:14;101266.97;;;1.12;61.82
45763;BME280;37512;52.408;13.356;2024-01-07T00:50:15;101279.75;;;1.06;62.10
45763;BME280;37512;52.408;13.356;2024-01-07T00:54:17;101279.00;;;1.16;61.74
45763;BME280;37512;52.408;13.356;2024-01-07T00:58:18;101281.16;;;0.84;62.38
45763;BME280;37512;52.408;13.356;2024-01-07T01:02:20;101285.59;;;0.84;62.41
45763;BME280;37512;52.408;13.356;2024-01-07T01:06:22;101298.19;;;0.66;62.20
45763;BME280;37512;52.408;13.356;2024-01-07T01:10:24;101297.22;;;0.54;61.64
45763;BME280;37512;52.408;13.356;2024-01-07T01:14:25;101305.63;;;0.74;61.71
45763;BME280;37512;52.408;13.356;2024-01-07T01:18:27;101304.25;;;1.08;59.80
45763;BME280;37512;52.408;13.356;2024-01-07T01:22:29;101307.69;;;0.69;60.76
45763;BME280;37512;52.408;13.356;2024-01-07T01:26:30;101314.31;;;0.62;60.54
45763;BME280;37512;52.408;13.356;2024-01-07T01:30:32;101327.06;;;0.55;60.44
45763;BME280;37512;52.408;13.356;2024-01-07T01:34:34;101333.88;;;0.45;60.83
45763;BME280;37512;52.408;13.356;2024-01-07T01:38:35;101335.31;;;0.36;60.92
45763;BME280;37512;52.408;13.356;2024-01-07T01:42:37;101339.16;;;0.16;60.53
45763;BME280;37512;52.408;13.356;2024-01-07T01:46:39;101340.59;;;0.08;61.06
45763;BME280;37512;52.408;13.356;2024-01-07T01:50:41;101337.22;;;0.20;59.67
45763;BME280;37512;52.408;13.356;2024-01-07T01:54:42;101346.22;;;0.30;59.79
45763;BME280;37512;52.408;13.356;2024-01-07T01:58:44;101354.03;;;0.17;59.36
45763;BME280;37512;52.408;13.356;2024-01-07T02:02:46;101364.13;;;0.11;59.30
45763;BME280;37512;52.408;13.356;2024-01-07T02:06:48;101360.44;;;0.42;58.02
45763;BME280;37512;52.408;13.356;2024-01-07T02:10:49;101358.44;;;0.45;57.91
45763;BME280;37512;52.408;13.356;2024-01-07T02:14:51;101358.19;;;0.36;58.08
45763;BME280;37512;52.408;13.356;2024-01-07T02:18:53;101364.53;;;0.19;59.22
45763;BME280;37512;52.408;13.356;2024-01-07T02:22:55;101359.06;;;0.08;58.65
45763;BME280;37512;52.408;13.356;2024-01-07T02:26:58;101357.72;;;0.15;58.46
45763;BME280;37512;52.408;13.356;2024-01-07T02:31:04;101359.44;;;0.02;59.34
45763;BME280;37512;52.408;13.356;2024-01-07T02:35:06;101368.75;;;0.36;58.80
45763;BME280;37512;52.408;13.356;2024-01-07T02:39:08;101368.66;;;0.09;59.12
45763;BME280;37512;52.408;13.356;2024-01-07T02:43:09;101373.72;;;-0.03;57.83
45763;BME280;37512;52.408;13.356;2024-01-07T02:47:11;101373.25;;;-0.09;57.85
45763;BME280;37512;52.408;13.356;2024-01-07T02:51:12;101375.59;;;-0.33;58.47
45763;BME280;37512;52.408;13.356;2024-01-07T02:55:14;101365.16;;;-0.35;58.25
45763;BME280;37512;52.408;13.356;2024-01-07T02:59:16;101388.50;;;-0.28;58.88
45763;BME280;37512;52.408;13.356;2024-01-07T03:03:18;101398.06;;;-0.42;59.17
45763;BME280;37512;52.408;13.356;2024-01-07T03:07:19;101386.19;;;-0.49;58.88
45763;BME280;37512;52.408;13.356;2024-01-07T03:11:21;101396.81;;;-0.50;58.84
45763;BME280;37512;52.408;13.356;2024-01-07T03:15:22;101396.03;;;-0.52;58.97
45763;BME280;37512;52.408;13.356;2024-01-07T03:19:24;101405.22;;;-0.29;58.15
45763;BME280;37512;52.408;13.356;2024-01-07T03:23:26;101400.13;;;-0.47;58.94
45763;BME280;37512;52.408;13.356;2024-01-07T03:27:29;101411.06;;;-0.54;59.02
45763;BME280;37512;52.408;13.356;2024-01-07T03:31:30;101411.31;;;-0.43;58.86
45763;BME280;37512;52.408;13.356;2024-01-07T03:35:32;101420.03;;;-0.73;59.63
45763;BME280;37512;52.408;13.356;2024-01-07T03:39:34;101407.31;;;-0.65;59.15
45763;BME280;37512;52.408;13.356;2024-01-07T03:43:36;101423.31;;;-0.83;60.11
45763;BME280;37512;52.408;13.356;2024-01-07T03:47:37;101418.97;;;-0.84;59.53
45763;BME280;37512;52.408;13.356;2024-01-07T03:51:39;101433.94;;;-0.85;59.82
45763;BME280;37512;52.408;13.356;2024-01-07T03:55:41;101433.19;;;-0.73;58.84
45763;BME280;37512;52.408;13.356;2024-01-07T03:59:42;101448.88;;;-1.01;59.86
45763;BME280;37512;52.408;13.356;2024-01-07T04:03:44;101450.91;;;-1.06;59.71
45763;BME280;37512;52.408;13.356;2024-01-07T04:07:46;101462.69;;;-0.82;59.95
45763;BME280;37512;52.408;13.356;2024-01-07T04:11:47;101477.63;;;-0.82;59.51
45763;BME280;37512;52.408;13.356;2024-01-07T04:15:50;101472.66;;;-1.03;60.04
45763;BME280;37512;52.408;13.356;2024-01-07T04:19:52;101485.34;;;-0.79;59.43
45763;BME280;37512;52.408;13.356;2024-01-07T04:23:53;101497.47;;;-1.08;59.29
45763;BME280;37512;52.408;13.356;2024-01-07T04:27:55;101503.34;;;-0.87;59.12
45763;BME280;37512;52.408;13.356;2024-01-07T04:31:57;101494.34;;;-0.68;58.10
45763;BME280;37512;52.408;13.356;2024-01-07T04:35:58;101498.25;;;-0.91;58.31
45763;BME280;37512;52.408;13.356;2024-01-07T04:40:02;101503.19;;;-0.84;57.78
45763;BME280;37512;52.408;13.356;2024-01-07T04:44:04;101496.06;;;-0.98;58.34
45763;BME280;37512;52.408;13.356;2024-01-07T04:48:06;101501.06;;;-0.94;58.70
45763;BME280;37512;52.408;13.356;2024-01-07T04:52:07;101507.59;;;-1.01;58.14
45763;BME280;37512;52.408;13.356;2024-01-07T04:56:09;101501.59;;;-1.03;57.78
45763;BME280;37512;52.408;13.356;2024-01-07T05:00:11;101505.28;;;-0.91;57.93
45763;BME280;37512;52.408;13.356;2024-01-07T05:04:13;101511.84;;;-0.82;57.40
45763;BME280;37512;52.408;13.356;2024-01-07T05:08:15;101513.44;;;-1.11;58.69
45763;BME280;37512;52.408;13.356;2024-01-07T05:12:16;101517.03;;;-0.81;58.25
45763;BME280;37512;52.408;13.356;2024-01-07T05:16:19;101530.84;;;-0.77;57.28
45763;BME280;37512;52.408;13.356;2024-01-07T05:20:21;101521.16;;;-1.08;58.40
45763;BME280;37512;52.408;13.356;2024-01-07T05:24:22;101522.88;;;-0.92;58.51
45763;BME280;37512;52.408;13.356;2024-01-07T05:28:24;101537.03;;;-0.94;58.44
45763;BME280;37512;52.408;13.356;2024-01-07T05:32:26;101543.81;;;-1.06;58.51
45763;BME280;37512;52.408;13.356;2024-01-07T05:36:27;101553.50;;;-1.06;58.45
45763;BME280;37512;52.408;13.356;2024-01-07T05:40:29;101553.09;;;-0.83;58.25
45763;BME280;37512;52.408;13.356;2024-01-07T05:44:30;101560.81;;;-0.80;58.66
45763;BME280;37512;52.408;13.356;2024-01-07T05:48:45;101573.72;;;-0.75;58.37
45763;BME280;37512;52.408;13.356;2024-01-07T05:52:48;101571.69;;;-1.02;58.97
45763;BME280;37512;52.408;13.356;2024-01-07T05:56:49;101578.25;;;-1.10;59.13
45763;BME280;37512;52.408;13.356;2024-01-07T06:00:51;101583.94;;;-1.18;59.67
45763;BME280;37512;52.408;13.356;2024-01-07T06:04:53;101577.94;;;-1.04;59.16
45763;BME280;37512;52.408;13.356;2024-01-07T06:08:55;101595.09;;;-0.97;59.26
45763;BME280;37512;52.408;13.356;2024-01-07T06:12:56;101596.28;;;-1.03;59.16
45763;BME280;37512;52.408;13.356;2024-01-07T06:16:58;101591.47;;;-0.79;58.80
45763;BME280;37512;52.408;13.356;2024-01-07T06:21:00;101591.22;;;-0.74;59.08
45763;BME280;37512;52.408;13.356;2024-01-07T06:25:01;101602.00;;;-0.79;58.75
45763;BME280;37512;52.408;13.356;2024-01-07T06:29:07;101601.75;;;-0.74;59.04
45763;BME280;37512;52.408;13.356;2024-01-07T06:33:11;101600.03;;;-0.91;60.26
45763;BME280;37512;52.408;13.356;2024-01-07T06:37:14;101607.53;;;-0.83;60.02
45763;BME280;37512;52.408;13.356;2024-01-07T06:41:16;101621.06;;;-0.91;59.79
45763;BME280;37512;52.408;13.356;2024-01-07T06:45:17;101622.81;;;-0.58;58.76
45763;BME280;37512;52.408;13.356;2024-01-07T06:49:19;101621.19;;;-0.77;59.31
45763;BME280;37512;52.408;13.356;2024-01-07T06:53:21;101634.56;;;-0.48;58.36
45763;BME280;37512;52.408;13.356;2024-01-07T06:57:23;101636.41;;;-0.50;58.65
45763;BME280;37512;52.408;13.356;2024-01-07T07:01:24;101632.41;;;-0.42;58.30
45763;BME280;37512;52.408;13.356;2024-01-07T07:05:26;101637.00;;;-0.61;58.58
45763;BME280;37512;52.408;13.356;2024-01-07T07:09:31;101642.44;;;-0.64;58.16
45763;BME280;37512;52.408;13.356;2024-01-07T07:13:32;101642.75;;;-0.54;57.95
45763;BME280;37512;52.408;13.356;2024-01-07T07:17:34;101651.44;;;-0.52;57.47
45763;BME280;37512;52.408;13.356;2024-01-07T07:21:36;101661.47;;;-0.43;58.27
45763;BME280;37512;52.408;13.356;2024-01-07T07:25:37;101666.38;;;-0.37;57.40
45763;BME280;37512;52.408;13.356;2024-01-07T07:29:39;101664.34;;;-0.64;58.94
45763;BME280;37512;52.408;13.356;2024-01-07T07:33:40;101662.69;;;-0.33;57.10
45763;BME280;37512;52.408;13.356;2024-01-07T07:37:42;101670.81;;;-0.22;57.10
45763;BME280;37512;52.408;13.356;2024-01-07T07:41:44;101681.34;;;-0.38;56.86
45763;BME280;37512;52.408;13.356;2024-01-07T07:45:46;101680.25;;;-0.34;57.39
45763;BME280;37512;52.408;13.356;2024-01-07T07:49:47;101682.94;;;-0.35;57.57
45763;BME280;37512;52.408;13.356;2024-01-07T07:53:51;101684.69;;;-0.34;58.12
45763;BME280;37512;52.408;13.356;2024-01-07T07:57:53;101695.63;;;-0.10;56.53
45763;BME280;37512;52.408;13.356;2024-01-07T08:01:55;101700.91;;;-0.10;57.04
45763;BME280;37512;52.408;13.356;2024-01-07T08:05:57;101700.56;;;-0.04;56.66
45763;BME280;37512;52.408;13.356;2024-01-07T08:09:59;101702.69;;;0.05;56.53
45763;BME280;37512;52.408;13.356;2024-01-07T08:14:00;101705.97;;;0.24;55.55
45763;BME280;37512;52.408;13.356;2024-01-07T08:18:04;101696.16;;;0.42;55.99
45763;BME280;37512;52.408;13.356;2024-01-07T08:22:06;101719.22;;;0.39;55.92
45763;BME280;37512;52.408;13.356;2024-01-07T08:26:08;101711.56;;;0.34;55.72
45763;BME280;37512;52.408;13.356;2024-01-07T08:30:09;101708.88;;;0.20;55.83
45763;BME280;37512;52.408;13.356;2024-01-07T08:34:11;101720.59;;;0.30;55.71
45763;BME280;37512;52.408;13.356;2024-01-07T08:38:13;101724.81;;;0.48;55.11
45763;BME280;37512;52.408;13.356;2024-01-07T08:42:15;101736.19;;;0.49;55.66
45763;BME280;37512;52.408;13.356;2024-01-07T08:46:20;101737.81;;;0.81;54.41
45763;BME280;37512;52.408;13.356;2024-01-07T08:50:22;101736.81;;;0.54;55.31
45763;BME280;37512;52.408;13.356;2024-01-07T08:54:24;101730.22;;;0.61;56.09
45763;BME280;37512;52.408;13.356;2024-01-07T08:58:26;101721.22;;;0.79;55.26
45763;BME280;37512;52.408;13.356;2024-01-07T09:02:28;101728.63;;;0.88;54.47
45763;BME280;37512;52.408;13.356;2024-01-07T09:06:29;101730.56;;;0.85;54.96
45763;BME280;37512;52.408;13.356;2024-01-07T09:10:31;101726.06;;;-0.05;56.94
45763;BME280;37512;52.408;13.356;2024-01-07T09:14:33;101734.47;;;0.18;57.76
45763;BME280;37512;52.408;13.356;2024-01-07T09:18:34;101735.50;;;0.91;55.08
45763;BME280;37512;52.408;13.356;2024-01-07T09:22:36;101738.44;;;1.15;54.13
45763;BME280;37512;52.408;13.356;2024-01-07T09:26:38;101739.78;;;1.08;55.00
45763;BME280;37512;52.408;13.356;2024-01-07T09:30:39;101736.13;;;1.25;55.37
45763;BME280;37512;52.408;13.356;2024-01-07T09:34:41;101736.19;;;1.37;54.19
45763;BME280;37512;52.408;13.356;2024-01-07T09:38:42;101742.91;;;1.29;54.80
45763;BME280;37512;52.408;13.356;2024-01-07T09:42:44;101742.44;;;1.50;54.13
45763;BME280;37512;52.408;13.356;2024-01-07T09:46:46;101738.59;;;1.42;54.14
45763;BME280;37512;52.408;13.356;2024-01-07T09:50:52;101726.88;;;1.60;54.58
45763;BME280;37512;52.408;13.356;2024-01-07T09:54:58;101734.50;;;1.79;54.21
45763;BME280;37512;52.408;13.356;2024-01-07T09:59:03;101731.22;;;1.75;53.84
45763;BME280;37512;52.408;13.356;2024-01-07T10:03:04;101733.94;;;1.74;53.80
45763;BME280;37512;52.408;13.356;2024-01-07T10:07:06;101737.25;;;1.63;54.70
45763;BME280;37512;52.408;13.356;2024-01-07T10:11:08;101737.44;;;1.60;55.19
45763;BME280;37512;52.408;13.356;2024-01-07T10:15:10;101743.38;;;1.78;53.70
45763;BME280;37512;52.408;13.356;2024-01-07T10:19:19;101741.28;;;1.55;55.48
45763;BME280;37512;52.408;13.356;2024-01-07T10:23:21;101734.91;;;1.59;55.72
45763;BME280;37512;52.408;13.356;2024-01-07T10:27:23;101740.28;;;1.29;56.99
45763;BME280;37512;52.408;13.356;2024-01-07T10:31:25;101749.31;;;1.25;58.07
45763;BME280;37512;52.408;13.356;2024-01-07T10:35:33;101740.47;;;1.26;58.14
45763;BME280;37512;52.408;13.356;2024-01-07T10:39:35;101738.66;;;1.12;58.33
45763;BME280;37512;52.408;13.356;2024-01-07T10:43:38;101733.84;;;1.47;57.63
45763;BME280;37512;52.408;13.356;2024-01-07T10:47:40;101751.38;;;1.34;58.70
45763;BME280;37512;52.408;13.356;2024-01-07T10:51:43;101742.34;;;1.38;59.65
45763;BME280;37512;52.408;13.356;2024-01-07T10:55:53;101735.25;;;1.52;59.24
45763;BME280;37512;52.408;13.356;2024-01-07T10:59:59;101728.81;;;1.85;58.08
45763;BME280;37512;52.408;13.356;2024-01-07T11:08:11;101730.63;;;1.70;57.60
45763;BME280;37512;52.408;13.356;2024-01-07T11:12:14;101728.56;;;1.33;59.84
45763;BME280;37512;52.408;13.356;2024-01-07T11:20:40;101733.66;;;1.64;59.44
45763;BME280;37512;52.408;13.356;2024-01-07T11:24:41;101728.38;;;1.78;59.18
45763;BME280;37512;52.408;13.356;2024-01-07T11:28:55;101729.00;;;1.82;58.67
45763;BME280;37512;52.408;13.356;2024-01-07T11:33:00;101723.72;;;1.82;58.65
45763;BME280;37512;52.408;13.356;2024-01-07T11:37:03;101733.00;;;1.75;58.88
45763;BME280;37512;52.408;13.356;2024-01-07T11:41:10;101715.16;;;1.78;59.27
45763;BME280;37512;52.408;13.356;2024-01-07T11:45:12;101716.66;;;1.68;59.28
45763;BME280;37512;52.408;13.356;2024-01-07T11:49:14;101717.91;;;1.77;60.05
45763;BME280;37512;52.408;13.356;2024-01-07T11:53:16;101703.94;;;1.61;60.44
45763;BME280;37512;52.408;13.356;2024-01-07T11:57:18;101707.44;;;1.61;60.99
45763;BME280;37512;52.408;13.356;2024-01-07T12:01:20;101702.16;;;1.61;61.50
45763;BME280;37512;52.408;13.356;2024-01-07T12:05:21;101703.84;;;1.76;61.15
45763;BME280;37512;52.408;13.356;2024-01-07T12:09:24;101711.47;;;2.08;60.28
45763;BME280;37512;52.408;13.356;2024-01-07T12:13:26;101705.84;;;2.00;60.65
45763;BME280;37512;52.408;13.356;2024-01-07T12:17:27;101716.88;;;2.06;61.18
45763;BME280;37512;52.408;13.356;2024-01-07T12:21:29;101711.56;;;2.06;60.73
45763;BME280;37512;52.408;13.356;2024-01-07T12:25:31;101709.88;;;2.05;62.39
45763;BME280;37512;52.408;13.356;2024-01-07T12:29:33;101703.25;;;2.39;64.65
45763;BME280;37512;52.408;13.356;2024-01-07T12:33:37;101706.50;;;2.70;63.20
45763;BME280;37512;52.408;13.356;2024-01-07T12:37:42;101705.00;;;2.53;61.97
45763;BME280;37512;52.408;13.356;2024-01-07T12:41:43;101711.06;;;2.28;61.12
45763;BME280;37512;52.408;13.356;2024-01-07T12:45:45;101715.88;;;2.49;60.25
45763;BME280;37512;52.408;13.356;2024-01-07T12:49:50;101720.66;;;2.02;61.40
45763;BME280;37512;52.408;13.356;2024-01-07T12:53:52;101731.84;;;2.20;61.65
45763;BME280;37512;52.408;13.356;2024-01-07T12:57:53;101728.34;;;2.20;61.97
45763;BME280;37512;52.408;13.356;2024-01-07T13:01:57;101716.81;;;1.94;63.98
45763;BME280;37512;52.408;13.356;2024-01-07T13:05:59;101721.72;;;2.00;63.42
45763;BME280;37512;52.408;13.356;2024-01-07T13:10:01;101722.28;;;1.91;64.78
45763;BME280;37512;52.408;13.356;2024-01-07T13:14:03;101731.47;;;2.26;64.15
45763;BME280;37512;52.408;13.356;2024-01-07T13:18:05;101730.19;;;2.05;65.18
45763;BME280;37512;52.408;13.356;2024-01-07T13:22:07;101729.97;;;1.81;66.34
45763;BME280;37512;52.408;13.356;2024-01-07T13:26:10;101721.50;;;1.76;67.00
45763;BME280;37512;52.408;13.356;2024-01-07T13:30:12;101728.50;;;2.04;67.19
45763;BME280;37512;52.408;13.356;2024-01-07T13:34:13;101727.09;;;1.98;67.21
45763;BME280;37512;52.408;13.356;2024-01-07T13:38:19;101740.41;;;2.11;67.41
45763;BME280;37512;52.408;13.356;2024-01-07T13:42:21;101735.34;;;1.94;68.31
45763;BME280;37512;52.408;13.356;2024-01-07T13:46:22;101727.91;;;2.13;68.27
45763;BME280;37512;52.408;13.356;2024-01-07T13:50:29;101733.94;;;2.15;68.61
45763;BME280;37512;52.408;13.356;2024-01-07T13:54:31;101735.44;;;2.19;68.75
45763;BME280;37512;52.408;13.356;2024-01-07T13:58:32;101732.59;;;2.22;68.85
45763;BME280;37512;52.408;13.356;2024-01-07T14:02:36;101746.22;;;2.16;69.29
45763;BME280;37512;52.408;13.356;2024-01-07T14:06:38;101753.94;;;2.19;70.19
45763;BME280;37512;52.408;13.356;2024-01-07T14:10:40;101754.44;;;2.26;69.62
45763;BME280;37512;52.408;13.356;2024-01-07T14:14:42;101758.19;;;1.95;71.42
45763;BME280;37512;52.408;13.356;2024-01-07T14:18:43;101751.00;;;2.24;69.70
45763;BME280;37512;52.408;13.356;2024-01-07T14:22:45;101748.75;;;2.18;69.45
45763;BME280;37512;52.408;13.356;2024-01-07T14:26:47;101746.06;;;2.05;70.21
45763;BME280;37512;52.408;13.356;2024-01-07T14:30:48;101745.84;;;2.08;70.45
45763;BME280;37512;52.408;13.356;2024-01-07T14:34:50;101755.69;;;2.06;70.37
45763;BME280;37512;52.408;13.356;2024-01-07T14:38:52;101764.84;;;2.00;70.58
45763;BME280;37512;52.408;13.356;2024-01-07T14:42:54;101764.19;;;2.11;71.07
45763;BME280;37512;52.408;13.356;2024-01-07T14:47:00;101766.84;;;1.97;71.25
45763;BME280;37512;52.408;13.356;2024-01-07T14:51:02;101768.09;;;1.91;72.40
45763;BME280;37512;52.408;13.356;2024-01-07T14:55:04;101773.44;;;1.90;72.20
45763;BME280;37512;52.408;13.356;2024-01-07T14:59:06;101769.38;;;2.13;70.16
45763;BME280;37512;52.408;13.356;2024-01-07T15:03:07;101770.78;;;2.18;70.58
45763;BME280;37512;52.408;13.356;2024-01-07T15:07:09;101778.22;;;2.26;70.21
45763;BME280;37512;52.408;13.356;2024-01-07T15:11:11;101768.34;;;2.01;70.62
45763;BME280;37512;52.408;13.356;2024-01-07T15:15:12;101788.47;;;1.89;71.68
45763;BME280;37512;52.408;13.356;2024-01-07T15:19:14;101784.50;;;2.10;70.53
45763;BME280;37512;52.408;13.356;2024-01-07T15:23:16;101789.06;;;1.94;70.56
45763;BME280;37512;52.408;13.356;2024-01-07T15:27:18;101795.53;;;2.03;70.12
45763;BME280;37512;52.408;13.356;2024-01-07T15:31:19;101792.44;;;1.96;67.71
45763;BME280;37512;52.408;13.356;2024-01-07T15:35:21;101798.44;;;2.27;66.70
45763;BME280;37512;52.408;13.356;2024-01-07T15:39:22;101808.56;;;2.06;66.73
45763;BME280;37512;52.408;13.356;2024-01-07T15:43:24;101793.94;;;1.86;67.24
45763;BME280;37512;52.408;13.356;2024-01-07T15:47:26;101795.00;;;1.98;66.26
45763;BME280;37512;52.408;13.356;2024-01-07T15:51:28;101798.91;;;2.19;65.01
45763;BME280;37512;52.408;13.356;2024-01-07T15:55:30;101811.09;;;2.07;64.81
45763;BME280;37512;52.408;13.356;2024-01-07T15:59:32;101815.38;;;1.96;64.65
45763;BME280;37512;52.408;13.356;2024-01-07T16:03:34;101811.09;;;2.22;62.29
45763;BME280;37512;52.408;13.356;2024-01-07T16:07:36;101811.41;;;2.03;63.13
45763;BME280;37512;52.408;13.356;2024-01-07T16:11:38;101822.63;;;2.06;62.89
45763;BME280;37512;52.408;13.356;2024-01-07T16:15:39;101815.72;;;2.18;62.97
45763;BME280;37512;52.408;13.356;2024-01-07T16:19:41;101828.69;;;1.94;62.88
45763;BME280;37512;52.408;13.356;2024-01-07T16:23:43;101830.47;;;2.08;62.23
45763;BME280;37512;52.408;13.356;2024-01-07T16:27:44;101831.41;;;2.21;62.05
45763;BME280;37512;52.408;13.356;2024-01-07T16:31:46;101837.75;;;2.04;62.69
45763;BME280;37512;52.408;13.356;2024-01-07T16:35:48;101842.19;;;1.61;60.19
45763;BME280;37512;52.408;13.356;2024-01-07T16:39:49;101850.78;;;1.93;59.21
45763;BME280;37512;52.408;13.356;2024-01-07T16:43:51;101839.66;;;1.74;58.85
45763;BME280;37512;52.408;13.356;2024-01-07T16:47:53;101861.06;;;1.69;58.66
45763;BME280;37512;52.408;13.356;2024-01-07T16:51:55;101866.16;;;1.58;58.46
45763;BME280;37512;52.408;13.356;2024-01-07T16:55:56;101861.81;;;1.71;57.46
45763;BME280;37512;52.408;13.356;2024-01-07T16:59:59;101868.38;;;1.50;56.91
45763;BME280;37512;52.408;13.356;2024-01-07T17:04:01;101870.88;;;1.23;58.84
45763;BME280;37512;52.408;13.356;2024-01-07T17:08:03;101877.75;;;1.26;58.78
45763;BME280;37512;52.408;13.356;2024-01-07T17:12:07;101883.13;;;1.24;58.59
45763;BME280;37512;52.408;13.356;2024-01-07T17:16:08;101882.72;;;1.46;57.78
45763;BME280;37512;52.408;13.356;2024-01-07T17:20:13;101901.25;;;1.60;57.49
45763;BME280;37512;52.408;13.356;2024-01-07T17:24:14;101902.59;;;1.81;57.89
45763;BME280;37512;52.408;13.356;2024-01-07T17:28:16;101905.44;;;1.78;57.56
45763;BME280;37512;52.408;13.356;2024-01-07T17:32:18;101908.44;;;1.72;57.75
45763;BME280;37512;52.408;13.356;2024-01-07T17:36:25;101913.53;;;1.31;58.82
45763;BME280;37512;52.408;13.356;2024-01-07T17:40:27;101917.06;;;1.46;59.00
45763;BME280;37512;52.408;13.356;2024-01-07T17:44:28;101925.69;;;1.64;59.32
45763;BME280;37512;52.408;13.356;2024-01-07T17:48:30;101927.47;;;1.33;59.89
45763;BME280;37512;52.408;13.356;2024-01-07T17:52:31;101933.00;;;1.44;59.21
45763;BME280;37512;52.408;13.356;2024-01-07T17:56:33;101939.53;;;1.53;59.53
45763;BME280;37512;52.408;13.356;2024-01-07T18:00:36;101943.28;;;1.79;58.54
45763;BME280;37512;52.408;13.356;2024-01-07T18:04:40;101948.84;;;1.74;59.54
45763;BME280;37512;52.408;13.356;2024-01-07T18:08:42;101945.50;;;1.57;59.31
45763;BME280;37512;52.408;13.356;2024-01-07T18:12:53;101955.31;;;1.69;59.72
45763;BME280;37512;52.408;13.356;2024-01-07T18:17:00;101952.72;;;1.23;61.76
45763;BME280;37512;52.408;13.356;2024-01-07T18:21:01;101961.34;;;1.11;61.40
45763;BME280;37512;52.408;13.356;2024-01-07T18:25:03;101957.84;;;1.26;60.30
45763;BME280;37512;52.408;13.356;2024-01-07T18:29:05;101959.84;;;1.37;60.54
45763;BME280;37512;52.408;13.356;2024-01-07T18:33:07;101952.44;;;1.43;60.05
45763;BME280;37512;52.408;13.356;2024-01-07T18:37:10;101959.84;;;1.37;60.62
45763;BME280;37512;52.408;13.356;2024-01-07T18:41:19;101955.28;;;1.25;60.10
45763;BME280;37512;52.408;13.356;2024-01-07T18:45:25;101964.78;;;1.43;59.66
45763;BME280;37512;52.408;13.356;2024-01-07T18:49:27;101966.03;;;1.51;59.55
45763;BME280;37512;52.408;13.356;2024-01-07T18:53:32;101964.25;;;1.52;60.28
45763;BME280;37512;52.408;13.356;2024-01-07T18:57:34;101962.50;;;1.21;60.10
45763;BME280;37512;52.408;13.356;2024-01-07T19:01:36;101974.63;;;1.09;60.82
45763;BME280;37512;52.408;13.356;2024-01-07T19:05:39;101984.16;;;1.12;59.87
45763;BME280;37512;52.408;13.356;2024-01-07T19:09:45;101993.38;;;1.05;58.29
45763;BME280;37512;52.408;13.356;2024-01-07T19:13:46;101992.25;;;0.93;58.23
45763;BME280;37512;52.408;13.356;2024-01-07T19:17:48;101992.06;;;0.65;58.13
45763;BME280;37512;52.408;13.356;2024-01-07T19:21:50;101985.19;;;0.94;57.75
45763;BME280;37512;52.408;13.356;2024-01-07T19:25:53;102002.50;;;0.50;58.16
45763;BME280;37512;52.408;13.356;2024-01-07T19:29:55;102011.72;;;0.26;57.01
45763;BME280;37512;52.408;13.356;2024-01-07T19:33:57;102010.94;;;0.57;55.06
45763;BME280;37512;52.408;13.356;2024-01-07T19:37:59;102020.19;;;0.48;56.13
45763;BME280;37512;52.408;13.356;2024-01-07T19:42:00;102014.41;;;0.42;56.07
45763;BME280;37512;52.408;13.356;2024-01-07T19:46:02;102031.84;;;0.44;56.26
45763;BME280;37512;52.408;13.356;2024-01-07T19:50:04;102042.50;;;0.25;55.70
45763;BME280;37512;52.408;13.356;2024-01-07T19:54:06;102048.78;;;-0.12;54.17
45763;BME280;37512;52.408;13.356;2024-01-07T19:58:08;102048.09;;;-0.15;51.92
45763;BME280;37512;52.408;13.356;2024-01-07T20:02:12;102050.88;;;-0.54;50.89
45763;BME280;37512;52.408;13.356;2024-01-07T20:06:14;102064.44;;;-0.81;49.72
45763;BME280;37512;52.408;13.356;2024-01-07T20:10:16;102057.56;;;-1.21;47.26
45763;BME280;37512;52.408;13.356;2024-01-07T20:14:18;102066.91;;;-1.34;45.15
45763;BME280;37512;52.408;13.356;2024-01-07T20:18:20;102066.34;;;-1.22;46.05
45763;BME280;37512;52.408;13.356;2024-01-07T20:22:22;102068.38;;;-1.47;45.35
45763;BME280;37512;52.408;13.356;2024-01-07T20:26:24;102070.53;;;-1.37;46.27
45763;BME280;37512;52.408;13.356;2024-01-07T20:30:26;102080.47;;;-1.84;44.02
45763;BME280;37512;52.408;13.356;2024-01-07T20:34:28;102079.22;;;-1.96;42.60
45763;BME280;37512;52.408;13.356;2024-01-07T20:38:30;102084.38;;;-1.72;42.39
45763;BME280;37512;52.408;13.356;2024-01-07T20:42:31;102086.13;;;-1.73;42.73
45763;BME280;37512;52.408;13.356;2024-01-07T20:46:42;102074.88;;;-1.97;42.42
45763;BME280;37512;52.408;13.356;2024-01-07T20:50:44;102084.66;;;-2.42;43.53
45763;BME280;37512;52.408;13.356;2024-01-07T20:54:46;102090.31;;;-2.53;43.39
45763;BME280;37512;52.408;13.356;2024-01-07T20:58:49;102086.31;;;-2.40;42.74
45763;BME280;37512;52.408;13.356;2024-01-07T21:02:51;102090.13;;;-2.70;44.00
45763;BME280;37512;52.408;13.356;2024-01-07T21:06:53;102091.56;;;-2.40;43.96
45763;BME280;37512;52.408;13.356;2024-01-07T21:10:54;102094.34;;;-2.66;44.56